NAVACERRADA, MADRID

latitud = 40° 46' 50''N | longitud = 004° 00' 37''W
1894 metros sobre el nivel del mar | datos mensuales

Fecha, hora, temperatura, viento dirección y velocidad, humedad y presión.

  • 23-04-2018 10:00:00 | 7.60°C | Sudeste |25.00 km/h | 79.00% | 814.70 hPa
  • 23-04-2018 09:00:00 | 7.30°C | Sudeste |33.00 km/h | 76.00% | 814.20 hPa
  • 23-04-2018 08:00:00 | 8.00°C | Sur |26.00 km/h | 67.00% | 814.00 hPa
  • 23-04-2018 07:00:00 | 7.60°C | Sur |23.00 km/h | 65.00% | 813.70 hPa
  • 23-04-2018 06:00:00 | 6.70°C | Sudeste |26.00 km/h | 65.00% | 813.70 hPa
  • 23-04-2018 05:00:00 | 6.30°C | Sudeste |25.00 km/h | 74.00% | 813.90 hPa
  • 23-04-2018 04:00:00 | 6.70°C | Sudeste |28.00 km/h | 86.00% | 813.90 hPa
  • 23-04-2018 03:00:00 | 6.50°C | Sur |27.00 km/h | 87.00% | 814.20 hPa
  • 23-04-2018 02:00:00 | 7.40°C | Sudeste |24.00 km/h | 82.00% | 814.20 hPa
  • 23-04-2018 01:00:00 | 7.80°C | Sudeste |32.00 km/h | 80.00% | 814.00 hPa
  • 23-04-2018 00:00:00 | 8.90°C | Sudeste |23.00 km/h | 71.00% | 814.20 hPa
  • 22-04-2018 23:00:00 | 8.30°C | Sudeste |25.00 km/h | 75.00% | 814.00 hPa
  • 22-04-2018 22:00:00 | 9.20°C | Sudeste |16.00 km/h | 63.00% | 813.70 hPa
  • 22-04-2018 21:00:00 | 9.10°C | Sudeste |13.00 km/h | 65.00% | 813.20 hPa
  • 22-04-2018 20:00:00 | 10.30°C | Sudoeste |3.00 km/h | 83.00% | 813.10 hPa
  • 22-04-2018 19:00:00 | 11.10°C | Sur |9.00 km/h | 53.00% | 812.90 hPa
  • 22-04-2018 18:00:00 | 11.50°C | Sur |14.00 km/h | 50.00% | 812.30 hPa
  • 22-04-2018 17:00:00 | 11.10°C | Sudeste |21.00 km/h | 56.00% | 812.10 hPa
  • 22-04-2018 16:00:00 | 9.90°C | Sur |5.00 km/h | 77.00% | 812.80 hPa
  • 22-04-2018 15:00:00 | 10.90°C | Sudeste |18.00 km/h | 65.00% | 813.40 hPa
  • 22-04-2018 14:00:00 | 13.20°C | Sudeste |12.00 km/h | 55.00% | 812.70 hPa
  • 22-04-2018 13:00:00 | 12.90°C | Sudeste |13.00 km/h | 56.00% | 813.20 hPa
  • 22-04-2018 12:00:00 | 11.90°C | Este |8.00 km/h | 62.00% | 813.30 hPa
  • 22-04-2018 11:00:00 | 9.40°C | Nordeste |5.00 km/h | 73.00% | 813.40 hPa